aviador You're here:

KHST Decoded Metar

HOMESTEAD in FL, USA
Report Time2018-05-25 08:56:00
UTC Time2018-05-25 09:06:11
Flight Rules mvfr MVFR
Wind110° at 05 kt
W.Decomp.*RWY 05: 2.3 kt HW 4.5 kt RCW
W.Rank110° ranks 6
Current wind is below 110° avg. (6.8)
Visibility9999 m
Phenomena:N/A
Clouds:Scattered 017 Hf
Broken 024 Hf
Broken 170 Hf
Expected CloudBase > 1,200 ft AGL from Temp-Dew spread
Ceiling2,400 ft
Temp26°C (ISA +11)
Dew Point23°C (84% RH)
QNH1015 hPa
Density Alt1,581 ft
Elevation7 ft
Report Wrong Elevation
Raw Report
KHST 250856Z AUTO 11005KT 10SM SCT017 BKN024 BKN170 26/23 A2997
RMK AO2 CIG 018V024 SLP152 60000 T02570231 57012=

Extra information for KHST:More info

Metar Taf Metar & Taf Last 4 Metars F.Rules Stats Wind Profile Meteogram Temp Stats Airport Information Weather charts Add Link Nearby VenuesMetar ALERT Operation Metar Decoded Social comments

AIRNAV info for KHST